createdAt,value
2023-08-09T00:00:33.217Z,0.60
2023-08-09T00:04:38.144Z,0.52
2023-08-09T00:08:41.234Z,0.52
2023-08-09T00:12:44.608Z,0.77
2023-08-09T00:16:47.531Z,1.00
2023-08-09T00:20:52.456Z,0.82
2023-08-09T00:24:55.466Z,0.70
2023-08-09T00:28:58.924Z,0.80
2023-08-09T00:33:05.309Z,0.80
2023-08-09T00:37:10.986Z,0.80
2023-08-09T00:41:14.303Z,0.70
2023-08-09T00:45:18.709Z,0.73
2023-08-09T00:49:22.104Z,0.60
2023-08-09T00:53:27.473Z,1.00
2023-08-09T00:57:30.674Z,0.90
2023-08-09T01:01:34.338Z,1.00
2023-08-09T01:05:45.417Z,1.10
2023-08-09T01:09:56.558Z,0.73
2023-08-09T01:14:01.168Z,0.60
2023-08-09T01:18:06.724Z,0.80
2023-08-09T01:22:16.905Z,0.60
2023-08-09T01:26:22.426Z,1.00
2023-08-09T01:30:26.103Z,0.90
2023-08-09T01:34:30.364Z,0.70
2023-08-09T01:38:39.415Z,1.20
2023-08-09T01:42:45.126Z,0.85
2023-08-09T01:46:49.956Z,0.88
2023-08-09T01:50:53.856Z,1.08
2023-08-09T01:54:57.066Z,0.85
2023-08-09T01:59:01.990Z,0.85
2023-08-09T02:03:06.080Z,0.60
2023-08-09T02:07:10.683Z,0.90
2023-08-09T02:11:14.114Z,0.68
2023-08-09T02:15:20.849Z,1.15
2023-08-09T02:19:24.131Z,0.80
2023-08-09T02:23:28.568Z,0.98
2023-08-09T02:27:31.685Z,0.80
2023-08-09T02:31:38.078Z,0.70
2023-08-09T02:35:54.126Z,0.82
2023-08-09T02:39:58.373Z,0.75
2023-08-09T02:44:02.191Z,0.90
2023-08-09T02:48:08.888Z,0.60
2023-08-09T02:52:12.864Z,0.93
2023-08-09T02:56:16.776Z,0.98
2023-08-09T03:00:20.360Z,1.10
2023-08-09T03:04:25.603Z,0.93
2023-08-09T03:08:28.790Z,0.85
2023-08-09T03:12:33.036Z,0.98
2023-08-09T03:16:36.903Z,0.88
2023-08-09T03:20:42.425Z,0.90
2023-08-09T03:24:46.010Z,1.10
2023-08-09T03:28:50.198Z,0.68
2023-08-09T03:32:54.083Z,0.77
2023-08-09T03:37:00.080Z,0.80
2023-08-09T03:41:04.001Z,0.63
2023-08-09T03:45:09.277Z,0.95
2023-08-09T03:49:14.896Z,0.98
2023-08-09T03:53:22.095Z,0.82
2023-08-09T03:57:25.706Z,0.90
2023-08-09T04:01:29.704Z,1.20
2023-08-09T04:05:34.121Z,0.88
2023-08-09T04:09:39.125Z,1.23
2023-08-09T04:13:43.581Z,1.00
2023-08-09T04:17:50.242Z,1.15
2023-08-09T04:21:54.112Z,0.77
2023-08-09T04:26:02.232Z,0.80
2023-08-09T04:30:06.762Z,1.00
2023-08-09T04:34:10.064Z,1.10
2023-08-09T04:38:13.517Z,1.02
2023-08-09T04:42:18.433Z,1.05
2023-08-09T04:46:22.210Z,0.90
2023-08-09T04:50:28.344Z,0.90
2023-08-09T04:54:32.307Z,0.88
2023-08-09T04:58:37.677Z,0.80
2023-08-09T05:02:41.610Z,1.35
2023-08-09T05:06:44.987Z,0.95
2023-08-09T05:10:48.928Z,1.30
2023-08-09T05:14:54.035Z,0.98
2023-08-09T05:18:57.468Z,0.80
2023-08-09T05:23:00.455Z,0.85
2023-08-09T05:27:04.431Z,0.88
2023-08-09T05:31:09.693Z,1.00
2023-08-09T05:35:13.624Z,1.13
2023-08-09T05:39:16.871Z,1.13
2023-08-09T05:43:23.517Z,1.33
2023-08-09T05:47:28.239Z,1.20
2023-08-09T05:51:37.405Z,0.70
2023-08-09T05:55:41.502Z,0.80
2023-08-09T05:59:45.787Z,0.70
2023-08-09T06:03:51.186Z,0.65
2023-08-09T06:07:54.502Z,0.88
2023-08-09T06:11:57.693Z,0.93
2023-08-09T06:16:01.820Z,1.27
2023-08-09T06:20:08.844Z,1.10
2023-08-09T06:24:12.735Z,1.05
2023-08-09T06:28:16.334Z,1.08
2023-08-09T06:32:23.166Z,1.10
2023-08-09T06:36:28.229Z,1.00
2023-08-09T06:40:33.553Z,1.55
2023-08-09T06:44:36.759Z,1.70
2023-08-09T06:48:40.548Z,1.20
2023-08-09T06:52:46.030Z,1.10
2023-08-09T06:56:49.817Z,1.10
2023-08-09T07:00:54.678Z,1.45
2023-08-09T07:05:03.054Z,1.33
2023-08-09T07:09:09.317Z,1.55
2023-08-09T07:13:17.463Z,1.50
2023-08-09T07:17:20.510Z,1.52
2023-08-09T07:21:24.943Z,1.60
2023-08-09T07:25:32.496Z,1.20
2023-08-09T07:29:37.821Z,1.27
2023-08-09T07:33:41.008Z,1.50
2023-08-09T07:37:47.321Z,1.75
2023-08-09T07:41:52.462Z,1.45
2023-08-09T07:45:58.916Z,1.85
2023-08-09T07:50:02.349Z,1.77
2023-08-09T07:54:06.469Z,1.20
2023-08-09T07:58:11.154Z,1.35
2023-08-09T08:02:15.191Z,1.27
2023-08-09T08:06:19.737Z,1.90
2023-08-09T08:10:24.061Z,2.03
2023-08-09T08:14:28.840Z,1.17
2023-08-09T08:18:32.631Z,1.55
2023-08-09T08:22:36.014Z,1.80
2023-08-09T08:26:40.054Z,1.98
2023-08-09T08:30:45.241Z,1.30
2023-08-09T08:34:48.930Z,1.30
2023-08-09T08:38:53.015Z,1.67
2023-08-09T08:42:56.245Z,1.35
2023-08-09T08:47:03.076Z,1.65
2023-08-09T08:51:08.589Z,1.40
2023-08-09T08:55:14.997Z,1.30
2023-08-09T08:59:20.015Z,1.83
2023-08-09T09:03:25.432Z,2.13
2023-08-09T09:07:31.497Z,1.52
2023-08-09T09:11:37.728Z,1.55
2023-08-09T09:15:43.459Z,1.20
2023-08-09T09:19:49.339Z,1.00
2023-08-09T09:23:52.383Z,1.33
2023-08-09T09:27:57.102Z,1.00
2023-08-09T09:32:01.240Z,1.55
2023-08-09T09:36:07.013Z,1.13
2023-08-09T09:40:13.474Z,1.35
2023-08-09T09:44:20.434Z,1.40
2023-08-09T09:48:23.548Z,1.20
2023-08-09T09:52:30.423Z,1.60
2023-08-09T09:56:34.587Z,1.40
2023-08-09T10:00:40.616Z,1.02
2023-08-09T10:04:46.605Z,1.40
2023-08-09T10:08:53.851Z,1.38
2023-08-09T10:12:57.987Z,1.13
2023-08-09T10:17:14.418Z,1.00
2023-08-09T10:21:21.143Z,1.23
2023-08-09T10:25:47.739Z,1.48
2023-08-09T10:29:59.413Z,0.90
2023-08-09T10:34:15.593Z,1.20
2023-08-09T10:38:23.152Z,1.10
2023-08-09T10:42:30.068Z,1.00
2023-08-09T10:46:36.306Z,1.60
2023-08-09T10:50:49.043Z,1.55
2023-08-09T10:55:12.351Z,1.60
2023-08-09T10:59:26.202Z,1.77
2023-08-09T11:03:30.974Z,1.52
2023-08-09T11:07:35.306Z,1.30
2023-08-09T11:11:40.199Z,1.40
2023-08-09T11:15:49.802Z,1.60
2023-08-09T11:19:55.816Z,1.60
2023-08-09T11:24:00.187Z,1.35
2023-08-09T11:28:05.781Z,1.63
2023-08-09T11:32:10.976Z,1.55
2023-08-09T11:36:15.903Z,1.50
2023-08-09T11:40:24.935Z,1.98
2023-08-09T11:44:31.978Z,1.52
2023-08-09T11:48:41.193Z,1.10
2023-08-09T11:52:44.550Z,1.27
2023-08-09T11:56:47.857Z,1.40
2023-08-09T12:00:51.547Z,1.23
2023-08-09T12:04:56.629Z,1.50
2023-08-09T12:08:59.975Z,1.00
2023-08-09T12:13:04.185Z,1.25
2023-08-09T12:17:08.915Z,1.70
2023-08-09T12:21:13.785Z,1.58
2023-08-09T12:25:17.163Z,1.17
2023-08-09T12:29:22.401Z,0.80
2023-08-09T12:33:29.537Z,1.00
2023-08-09T12:37:35.714Z,1.20
2023-08-09T12:41:39.588Z,1.30
2023-08-09T12:45:43.254Z,1.15
2023-08-09T12:49:46.924Z,1.25
2023-08-09T12:53:54.690Z,0.93
2023-08-09T12:57:57.810Z,1.45
2023-08-09T13:02:02.202Z,0.98
2023-08-09T13:06:06.261Z,1.35
2023-08-09T13:10:13.829Z,0.82
2023-08-09T13:14:17.096Z,1.00
2023-08-09T13:18:20.460Z,1.33
2023-08-09T13:22:24.205Z,0.93
2023-08-09T13:26:33.375Z,0.63
2023-08-09T13:30:36.840Z,1.50
2023-08-09T13:34:40.676Z,0.95
2023-08-09T13:38:44.833Z,0.95
2023-08-09T13:42:50.249Z,1.00
2023-08-09T13:46:53.261Z,0.90
2023-08-09T13:50:57.356Z,0.50
2023-08-09T13:55:00.863Z,0.68
2023-08-09T13:59:07.445Z,1.25
2023-08-09T14:03:11.378Z,0.82
2023-08-09T14:07:16.954Z,0.80
2023-08-09T14:11:20.029Z,0.95
2023-08-09T14:15:25.156Z,0.65
2023-08-09T14:19:28.223Z,1.08
2023-08-09T14:23:34.020Z,0.88
2023-08-09T14:27:37.131Z,0.85
2023-08-09T14:31:42.140Z,0.98
2023-08-09T14:35:45.243Z,0.75
2023-08-09T14:39:48.880Z,1.30
2023-08-09T14:43:51.952Z,1.33
2023-08-09T14:47:57.273Z,0.95
2023-08-09T14:52:00.964Z,0.93
2023-08-09T14:56:05.019Z,0.98
2023-08-09T15:00:11.453Z,1.08
2023-08-09T15:04:20.256Z,1.05
2023-08-09T15:08:23.295Z,0.60
2023-08-09T15:12:27.647Z,0.82
2023-08-09T15:16:31.066Z,0.98
2023-08-09T15:20:35.689Z,0.90
2023-08-09T15:24:39.247Z,0.75
2023-08-09T15:28:43.148Z,1.13
2023-08-09T15:32:47.225Z,0.85
2023-08-09T15:36:52.665Z,0.65
2023-08-09T15:40:59.253Z,0.55
2023-08-09T15:45:03.988Z,0.95
2023-08-09T15:49:10.260Z,0.88
2023-08-09T15:53:15.749Z,0.95
2023-08-09T15:57:18.878Z,1.00
2023-08-09T16:01:22.814Z,1.30
2023-08-09T16:05:27.429Z,1.02
2023-08-09T16:09:32.693Z,1.20
2023-08-09T16:13:36.250Z,0.95
2023-08-09T16:17:40.169Z,0.90
2023-08-09T16:21:45.208Z,1.17
2023-08-09T16:25:50.801Z,1.10
2023-08-09T16:29:53.943Z,1.00
2023-08-09T16:33:57.603Z,1.13
2023-08-09T16:38:00.876Z,1.20
2023-08-09T16:42:05.993Z,1.60
2023-08-09T16:46:09.139Z,1.50
2023-08-09T16:50:13.990Z,1.05
2023-08-09T16:54:17.601Z,1.23
2023-08-09T16:58:22.839Z,1.08
2023-08-09T17:02:26.460Z,0.95
2023-08-09T17:06:30.398Z,1.10
2023-08-09T17:10:34.016Z,0.73
2023-08-09T17:14:39.038Z,1.20
2023-08-09T17:18:42.583Z,1.25
2023-08-09T17:22:48.346Z,0.70
2023-08-09T17:26:51.905Z,0.73
2023-08-09T17:30:59.337Z,1.10
2023-08-09T17:35:02.876Z,0.80
2023-08-09T17:39:09.384Z,0.60
2023-08-09T17:43:12.822Z,0.88
2023-08-09T17:47:17.782Z,0.73
2023-08-09T17:51:23.092Z,0.70
2023-08-09T17:55:26.276Z,1.00
2023-08-09T17:59:32.305Z,1.02
2023-08-09T18:03:37.680Z,1.05
2023-08-09T18:07:41.485Z,1.05
2023-08-09T18:11:44.742Z,0.75
2023-08-09T18:15:49.420Z,0.90
2023-08-09T18:19:58.046Z,0.88
2023-08-09T18:24:02.356Z,1.48
2023-08-09T18:28:05.978Z,1.40
2023-08-09T18:32:10.707Z,1.60
2023-08-09T18:36:20.269Z,1.27
2023-08-09T18:40:24.083Z,1.20
2023-08-09T18:44:27.655Z,1.15
2023-08-09T18:48:33.047Z,1.48
2023-08-09T18:52:39.505Z,0.88
2023-08-09T18:56:42.575Z,1.27
2023-08-09T19:00:48.876Z,0.90
2023-08-09T19:04:52.518Z,1.00
2023-08-09T19:08:57.866Z,0.95
2023-08-09T19:13:02.990Z,0.63
2023-08-09T19:17:06.757Z,0.80
2023-08-09T19:21:10.306Z,0.47
2023-08-09T19:25:17.275Z,0.90
2023-08-09T19:29:21.369Z,0.60
2023-08-09T19:33:32.973Z,0.75
2023-08-09T19:37:37.349Z,0.63
2023-08-09T19:41:42.436Z,0.60
2023-08-09T19:45:45.854Z,0.60
2023-08-09T19:49:50.998Z,0.30
2023-08-09T19:53:57.438Z,0.65
2023-08-09T19:58:03.443Z,0.65
2023-08-09T20:02:09.888Z,0.38
2023-08-09T20:06:14.256Z,0.40
2023-08-09T20:10:18.072Z,0.30
2023-08-09T20:14:23.398Z,0.30
2023-08-09T20:18:27.510Z,0.40
2023-08-09T20:22:31.461Z,0.25
2023-08-09T20:26:35.134Z,0.35
2023-08-09T20:30:42.728Z,0.47
2023-08-09T20:34:46.958Z,0.32
2023-08-09T20:38:50.206Z,0.45
2023-08-09T20:42:53.652Z,0.40
2023-08-09T20:46:58.850Z,0.38
2023-08-09T20:51:02.193Z,0.30
2023-08-09T20:55:06.606Z,0.85
2023-08-09T20:59:09.923Z,1.13
2023-08-09T21:03:15.312Z,0.90
2023-08-09T21:07:18.723Z,0.93
2023-08-09T21:11:23.126Z,0.90
2023-08-09T21:15:27.007Z,0.88
2023-08-09T21:19:35.179Z,0.98
2023-08-09T21:27:51.536Z,0.95
2023-08-09T21:31:54.948Z,0.60
2023-08-09T21:36:00.060Z,0.50
2023-08-09T21:40:03.352Z,0.80
2023-08-09T21:44:08.137Z,0.93
2023-08-09T21:48:11.418Z,0.80
2023-08-09T21:52:16.706Z,0.73
2023-08-09T21:56:20.316Z,0.75
2023-08-09T22:00:24.684Z,0.90
2023-08-09T22:04:29.188Z,0.95
2023-08-09T22:08:34.130Z,0.85
2023-08-09T22:12:37.421Z,0.55
2023-08-09T22:16:40.947Z,0.70
2023-08-09T22:20:45.575Z,0.68
2023-08-09T22:24:50.516Z,0.50
2023-08-09T22:28:54.054Z,0.55
2023-08-09T22:32:57.799Z,0.75
2023-08-09T22:37:01.237Z,0.95
2023-08-09T22:41:06.068Z,0.60
2023-08-09T22:45:10.526Z,0.80
2023-08-09T22:49:14.283Z,0.52
2023-08-09T22:53:18.349Z,1.00
2023-08-09T22:57:23.407Z,0.90
2023-08-09T23:01:26.912Z,0.65
2023-08-09T23:05:30.540Z,1.13
2023-08-09T23:09:34.139Z,0.65
2023-08-09T23:13:41.440Z,1.08
2023-08-09T23:17:44.542Z,1.17
2023-08-09T23:21:49.565Z,0.88
2023-08-09T23:25:53.599Z,1.02
2023-08-09T23:29:58.946Z,0.77
2023-08-09T23:34:12.222Z,0.90
2023-08-09T23:38:16.122Z,0.70
2023-08-09T23:42:21.567Z,0.90
2023-08-09T23:46:27.413Z,1.00
2023-08-09T23:50:31.694Z,0.80
2023-08-09T23:54:34.734Z,0.98
2023-08-09T23:58:38.565Z,0.88
